createdAt,value
2019-02-26T00:04:09.984Z,32.73
2019-02-26T00:06:42.450Z,30.23
2019-02-26T00:09:12.530Z,28.90
2019-02-26T00:11:42.744Z,27.33
2019-02-26T00:14:15.535Z,27.07
2019-02-26T00:16:46.673Z,27.43
2019-02-26T00:19:16.771Z,25.50
2019-02-26T00:21:47.951Z,26.17
2019-02-26T00:24:18.926Z,24.97
2019-02-26T00:26:49.136Z,23.70
2019-02-26T00:29:21.033Z,24.97
2019-02-26T00:31:52.922Z,25.80
2019-02-26T00:34:24.027Z,24.63
2019-02-26T00:36:54.355Z,23.80
2019-02-26T00:39:25.107Z,22.57
2019-02-26T00:41:58.133Z,22.13
2019-02-26T00:44:29.877Z,23.30
2019-02-26T00:47:02.705Z,22.20
2019-02-26T00:49:32.311Z,25.43
2019-02-26T00:52:04.048Z,24.03
2019-02-26T00:54:36.433Z,23.50
2019-02-26T00:57:08.599Z,21.80
2019-02-26T00:59:38.871Z,24.47
2019-02-26T01:02:10.327Z,23.60
2019-02-26T01:04:41.488Z,24.50
2019-02-26T01:07:12.514Z,22.30
2019-02-26T01:09:42.724Z,21.20
2019-02-26T01:12:13.711Z,20.80
2019-02-26T01:14:46.385Z,18.97
2019-02-26T01:17:18.645Z,19.77
2019-02-26T01:19:48.682Z,19.27
2019-02-26T01:22:18.950Z,21.27
2019-02-26T01:24:49.777Z,19.33
2019-02-26T01:27:21.100Z,18.97
2019-02-26T01:29:53.470Z,20.73
2019-02-26T01:32:24.914Z,19.53
2019-02-26T01:34:55.178Z,20.27
2019-02-26T01:37:27.691Z,22.07
2019-02-26T01:39:57.379Z,19.30
2019-02-26T01:42:29.426Z,16.70
2019-02-26T01:44:59.542Z,17.67
2019-02-26T01:47:32.107Z,17.20
2019-02-26T01:50:04.082Z,16.53
2019-02-26T01:52:34.223Z,16.00
2019-02-26T01:55:05.946Z,15.70
2019-02-26T01:57:36.199Z,14.60
2019-02-26T02:00:19.407Z,15.77
2019-02-26T02:02:49.682Z,15.83
2019-02-26T02:05:21.592Z,14.60
2019-02-26T02:07:53.547Z,14.37
2019-02-26T02:10:23.665Z,15.13
2019-02-26T02:12:57.345Z,14.07
2019-02-26T02:15:25.842Z,16.77
2019-02-26T02:17:57.706Z,15.33
2019-02-26T02:20:28.019Z,17.77
2019-02-26T02:23:00.473Z,18.53
2019-02-26T02:25:33.209Z,14.43
2019-02-26T02:28:04.417Z,15.70
2019-02-26T02:30:35.416Z,14.80
2019-02-26T02:33:06.140Z,14.83
2019-02-26T02:35:36.338Z,15.23
2019-02-26T02:38:06.755Z,14.53
2019-02-26T02:40:39.881Z,13.70
2019-02-26T02:43:10.024Z,14.13
2019-02-26T02:45:40.814Z,13.20
2019-02-26T02:48:11.769Z,12.40
2019-02-26T02:50:43.046Z,12.00
2019-02-26T02:53:13.360Z,12.10
2019-02-26T02:55:46.402Z,16.83
2019-02-26T02:58:18.180Z,13.50
2019-02-26T03:00:49.313Z,13.53
2019-02-26T03:03:19.489Z,12.23
2019-02-26T03:05:49.706Z,14.00
2019-02-26T03:08:22.323Z,12.20
2019-02-26T03:10:51.884Z,12.43
2019-02-26T03:13:24.879Z,11.33
2019-02-26T03:15:56.188Z,10.90
2019-02-26T03:18:25.852Z,11.27
2019-02-26T03:20:56.717Z,11.90
2019-02-26T03:23:28.028Z,11.87
2019-02-26T03:25:58.224Z,11.23
2019-02-26T03:28:28.545Z,11.57
2019-02-26T03:30:58.767Z,10.37
2019-02-26T03:33:29.872Z,11.60
2019-02-26T03:36:00.095Z,10.93
2019-02-26T03:38:30.456Z,11.57
2019-02-26T03:41:03.310Z,9.90
2019-02-26T03:43:34.192Z,9.50
2019-02-26T03:46:04.538Z,9.23
2019-02-26T03:48:34.717Z,9.80
2019-02-26T03:51:04.935Z,9.97
2019-02-26T03:53:36.322Z,8.57
2019-02-26T03:56:08.025Z,9.33
2019-02-26T03:58:39.070Z,9.93
2019-02-26T04:01:10.935Z,9.00
2019-02-26T04:03:42.521Z,10.97
2019-02-26T04:06:12.861Z,10.10
2019-02-26T04:08:46.166Z,9.30
2019-02-26T04:11:16.822Z,10.90
2019-02-26T04:13:49.482Z,10.80
2019-02-26T04:16:18.918Z,11.90
2019-02-26T04:18:51.978Z,10.63
2019-02-26T04:21:21.314Z,11.37
2019-02-26T04:23:51.567Z,8.73
2019-02-26T04:26:29.133Z,9.67
2019-02-26T04:29:08.750Z,10.13
2019-02-26T04:31:50.248Z,10.97
2019-02-26T04:34:26.550Z,10.70
2019-02-26T04:37:24.799Z,10.57
2019-02-26T04:40:19.229Z,10.77
2019-02-26T04:43:10.336Z,8.87
2019-02-26T04:45:44.107Z,8.33
2019-02-26T04:48:19.519Z,9.43
2019-02-26T04:50:49.438Z,10.20
2019-02-26T04:53:19.668Z,9.53
2019-02-26T04:55:49.949Z,14.83
2019-02-26T04:58:22.258Z,15.17
2019-02-26T05:00:52.137Z,14.57
2019-02-26T05:03:22.352Z,11.30
2019-02-26T05:05:55.941Z,11.90
2019-02-26T05:08:24.554Z,11.50
2019-02-26T05:10:57.287Z,10.97
2019-02-26T05:13:28.926Z,11.43
2019-02-26T05:15:58.692Z,11.33
2019-02-26T05:18:31.631Z,9.57
2019-02-26T05:21:02.752Z,9.63
2019-02-26T05:23:33.660Z,9.40
2019-02-26T05:26:05.609Z,8.43
2019-02-26T05:28:37.887Z,12.57
2019-02-26T05:31:09.077Z,11.03
2019-02-26T05:33:39.590Z,12.70
2019-02-26T05:36:12.125Z,12.43
2019-02-26T05:38:42.538Z,15.07
2019-02-26T05:41:12.918Z,17.53
2019-02-26T05:43:43.171Z,18.60
2019-02-26T05:46:15.673Z,21.80
2019-02-26T05:48:46.190Z,21.53
2019-02-26T05:51:17.290Z,18.10
2019-02-26T05:53:47.500Z,13.03
2019-02-26T05:56:20.192Z,14.60
2019-02-26T05:58:49.703Z,12.83
2019-02-26T06:01:21.827Z,9.73
2019-02-26T06:03:51.990Z,8.90
2019-02-26T06:06:22.289Z,10.27
2019-02-26T06:08:55.246Z,11.57
2019-02-26T06:11:28.313Z,11.83
2019-02-26T06:13:58.432Z,10.83
2019-02-26T06:16:28.953Z,10.20
2019-02-26T06:19:00.252Z,11.20
2019-02-26T06:21:30.489Z,8.57
2019-02-26T06:24:00.611Z,8.00
2019-02-26T06:26:35.095Z,8.87
2019-02-26T06:29:02.780Z,9.33
2019-02-26T06:31:33.050Z,9.57
2019-02-26T06:34:05.645Z,9.50
2019-02-26T06:36:36.132Z,11.23
2019-02-26T06:39:06.375Z,12.27
2019-02-26T06:41:39.506Z,16.50
2019-02-26T06:44:08.686Z,15.47
2019-02-26T06:46:38.960Z,17.80
2019-02-26T06:49:09.192Z,14.70
2019-02-26T06:51:39.487Z,15.17
2019-02-26T06:54:09.683Z,43.57
2019-02-26T06:56:43.728Z,20.67
2019-02-26T06:59:12.335Z,20.10
2019-02-26T07:01:42.739Z,15.37
2019-02-26T07:04:13.082Z,12.77
2019-02-26T07:06:43.419Z,14.83
2019-02-26T07:09:15.799Z,13.20
2019-02-26T07:11:45.661Z,11.17
2019-02-26T07:14:15.882Z,10.73
2019-02-26T07:16:46.158Z,9.37
2019-02-26T07:19:16.743Z,10.20
2019-02-26T07:21:48.132Z,9.67
2019-02-26T07:24:20.685Z,9.77
2019-02-26T07:26:50.715Z,8.93
2019-02-26T07:29:22.396Z,8.10
2019-02-26T07:31:54.101Z,8.23
2019-02-26T07:34:25.071Z,8.80
2019-02-26T07:36:57.258Z,7.97
2019-02-26T07:39:27.379Z,7.97
2019-02-26T07:41:57.659Z,10.50
2019-02-26T07:44:28.451Z,9.37
2019-02-26T07:47:00.629Z,9.27
2019-02-26T07:49:30.447Z,9.17
2019-02-26T07:52:03.141Z,8.63
2019-02-26T07:54:32.411Z,9.13
2019-02-26T07:57:02.823Z,9.63
2019-02-26T07:59:36.484Z,11.43
2019-02-26T08:02:06.349Z,15.23
2019-02-26T08:04:38.768Z,11.73
2019-02-26T08:07:08.789Z,10.70
2019-02-26T08:09:39.029Z,14.50
2019-02-26T08:12:11.268Z,10.80
2019-02-26T08:14:42.863Z,9.37
2019-02-26T08:17:13.123Z,8.53
2019-02-26T08:19:46.371Z,9.37
2019-02-26T08:22:15.093Z,8.40
2019-02-26T08:24:46.081Z,9.50
2019-02-26T08:27:17.079Z,10.13
2019-02-26T08:29:49.283Z,8.80
2019-02-26T08:32:21.005Z,8.40
2019-02-26T08:34:51.026Z,9.13
2019-02-26T08:37:22.253Z,10.20
2019-02-26T08:39:52.457Z,8.73
2019-02-26T08:42:22.721Z,8.20
2019-02-26T08:44:54.192Z,9.03
2019-02-26T08:47:24.639Z,9.10
2019-02-26T08:49:54.778Z,9.57
2019-02-26T08:52:29.312Z,14.80
2019-02-26T08:54:59.302Z,9.73
2019-02-26T08:57:29.557Z,9.78
2019-02-26T08:59:59.758Z,9.60
2019-02-26T09:02:29.906Z,9.90
2019-02-26T09:05:01.565Z,8.73
2019-02-26T09:07:31.907Z,8.30
2019-02-26T09:10:02.065Z,8.17
2019-02-26T09:12:32.202Z,8.73
2019-02-26T09:15:02.519Z,10.00
2019-02-26T09:17:36.921Z,10.47
2019-02-26T09:20:09.763Z,11.43
2019-02-26T09:22:40.599Z,11.10
2019-02-26T09:25:11.870Z,11.57
2019-02-26T09:27:42.930Z,16.53
2019-02-26T09:30:20.221Z,12.63
2019-02-26T09:32:52.421Z,10.47
2019-02-26T09:35:26.918Z,12.33
2019-02-26T09:37:57.888Z,10.50
2019-02-26T09:40:29.067Z,11.57
2019-02-26T09:43:00.139Z,12.50
2019-02-26T09:45:30.453Z,13.37
2019-02-26T09:48:01.258Z,13.10
2019-02-26T09:50:31.597Z,15.33
2019-02-26T09:53:01.871Z,14.20
2019-02-26T09:55:32.179Z,13.80
2019-02-26T09:58:02.669Z,13.47
2019-02-26T10:00:33.016Z,14.27
2019-02-26T10:03:05.270Z,13.27
2019-02-26T10:05:35.525Z,14.90
2019-02-26T10:08:19.778Z,14.30
2019-02-26T10:10:51.844Z,15.30
2019-02-26T10:13:23.271Z,15.30
2019-02-26T10:15:53.746Z,14.43
2019-02-26T10:18:25.643Z,11.13
2019-02-26T10:20:57.554Z,12.57
2019-02-26T10:23:33.022Z,15.70
2019-02-26T10:26:05.202Z,23.80
2019-02-26T10:28:39.343Z,24.87
2019-02-26T10:31:09.630Z,13.33
2019-02-26T10:33:41.185Z,12.73
2019-02-26T10:36:12.953Z,12.03
2019-02-26T10:38:43.831Z,12.53
2019-02-26T10:41:14.781Z,12.57
2019-02-26T10:43:45.170Z,13.13
2019-02-26T10:46:16.901Z,13.20
2019-02-26T10:48:48.073Z,15.90
2019-02-26T10:51:26.112Z,14.63
2019-02-26T10:53:51.849Z,16.70
2019-02-26T10:56:28.017Z,14.97
2019-02-26T10:59:03.565Z,16.73
2019-02-26T11:01:33.508Z,16.70
2019-02-26T11:04:08.355Z,19.23
2019-02-26T11:06:41.594Z,18.70
2019-02-26T11:09:11.114Z,20.23
2019-02-26T11:11:42.359Z,24.02
2019-02-26T11:14:15.981Z,20.00
2019-02-26T11:16:47.231Z,15.97
2019-02-26T11:19:17.535Z,14.27
2019-02-26T11:21:50.078Z,12.30
2019-02-26T11:24:23.441Z,11.80
2019-02-26T11:26:51.947Z,14.43
2019-02-26T11:29:22.288Z,15.00
2019-02-26T11:31:52.575Z,15.83
2019-02-26T11:34:25.471Z,16.30
2019-02-26T11:36:57.950Z,15.93
2019-02-26T11:39:28.266Z,17.83
2019-02-26T11:42:00.727Z,19.40
2019-02-26T11:44:30.514Z,20.70
2019-02-26T11:47:00.714Z,21.57
2019-02-26T11:49:31.324Z,23.90
2019-02-26T11:52:04.402Z,25.50
2019-02-26T11:54:35.083Z,26.70
2019-02-26T11:57:11.215Z,28.70
2019-02-26T11:59:42.791Z,26.40
2019-02-26T12:02:14.240Z,29.37
2019-02-26T12:04:44.415Z,28.10
2019-02-26T12:07:14.609Z,32.33
2019-02-26T12:09:44.909Z,31.47
2019-02-26T12:12:15.141Z,32.03
2019-02-26T12:14:48.298Z,29.23
2019-02-26T12:17:17.611Z,31.80
2019-02-26T12:19:48.641Z,35.40
2019-02-26T12:22:20.421Z,39.07
2019-02-26T12:24:55.768Z,35.90
2019-02-26T12:27:23.776Z,41.90
2019-02-26T12:29:59.550Z,42.53
2019-02-26T12:32:29.910Z,34.63
2019-02-26T12:35:00.290Z,32.80
2019-02-26T12:37:30.616Z,32.27
2019-02-26T12:40:02.069Z,34.13
2019-02-26T12:42:32.283Z,38.93
2019-02-26T12:45:04.861Z,33.90
2019-02-26T12:47:39.804Z,31.97
2019-02-26T12:50:12.357Z,32.40
2019-02-26T12:52:47.484Z,32.07
2019-02-26T12:55:17.756Z,31.83
2019-02-26T12:57:49.780Z,28.63
2019-02-26T13:00:23.602Z,29.50
2019-02-26T13:02:53.871Z,31.20
2019-02-26T13:05:24.172Z,28.40
2019-02-26T13:07:55.368Z,33.17
2019-02-26T13:10:26.537Z,36.47
2019-02-26T13:13:00.127Z,32.03
2019-02-26T13:15:30.250Z,30.57
2019-02-26T13:18:01.457Z,30.47
2019-02-26T13:20:34.416Z,32.90
2019-02-26T13:23:16.963Z,32.77
2019-02-26T13:25:37.306Z,34.57
2019-02-26T13:28:07.597Z,34.80
2019-02-26T13:30:37.944Z,33.33
2019-02-26T13:33:12.875Z,31.60
2019-02-26T13:35:42.834Z,31.00
2019-02-26T13:38:13.619Z,30.73
2019-02-26T13:40:45.495Z,31.73
2019-02-26T13:43:15.727Z,35.20
2019-02-26T13:45:47.710Z,32.90
2019-02-26T13:48:17.966Z,35.97
2019-02-26T13:50:50.656Z,33.13
2019-02-26T13:53:20.920Z,33.50
2019-02-26T13:55:53.139Z,30.23
2019-02-26T13:58:23.403Z,29.63
2019-02-26T14:00:57.333Z,22.97
2019-02-26T14:03:36.947Z,21.33
2019-02-26T14:06:13.998Z,19.77
2019-02-26T14:08:44.325Z,18.47
2019-02-26T14:11:14.824Z,22.70
2019-02-26T14:13:45.183Z,16.27
2019-02-26T14:16:18.732Z,17.50
2019-02-26T14:18:49.087Z,13.47
2019-02-26T14:21:19.596Z,15.17
2019-02-26T14:23:50.207Z,16.47
2019-02-26T14:26:21.083Z,17.40
2019-02-26T14:28:52.893Z,17.73
2019-02-26T14:31:23.732Z,17.10
2019-02-26T14:33:55.859Z,16.50
2019-02-26T14:36:31.527Z,15.50
2019-02-26T14:39:03.820Z,13.57
2019-02-26T14:41:35.601Z,13.43
2019-02-26T14:44:12.448Z,13.17
2019-02-26T14:47:09.349Z,12.83
2019-02-26T14:49:53.759Z,13.40
2019-02-26T14:52:33.551Z,14.53
2019-02-26T14:55:11.121Z,14.00
2019-02-26T14:58:02.520Z,12.93
2019-02-26T15:00:45.357Z,19.55
2019-02-26T15:03:33.906Z,14.63
2019-02-26T15:06:23.489Z,15.53
2019-02-26T15:11:53.506Z,18.37
2019-02-26T15:14:23.952Z,15.67
2019-02-26T15:16:54.263Z,16.17
2019-02-26T15:19:25.013Z,17.73
2019-02-26T15:21:57.216Z,17.83
2019-02-26T15:24:27.727Z,18.87
2019-02-26T15:27:16.301Z,18.30
2019-02-26T15:29:50.550Z,17.60
2019-02-26T15:32:20.828Z,18.10
2019-02-26T15:34:51.093Z,16.80
2019-02-26T15:37:21.348Z,16.73
2019-02-26T15:39:51.615Z,15.90
2019-02-26T15:42:22.880Z,15.40
2019-02-26T15:44:53.126Z,14.73
2019-02-26T15:47:23.576Z,16.00
2019-02-26T15:49:53.787Z,14.60
2019-02-26T15:52:24.053Z,17.53
2019-02-26T15:54:57.646Z,20.77
2019-02-26T15:57:28.570Z,16.27
2019-02-26T16:00:00.407Z,15.40
2019-02-26T16:02:30.908Z,15.77
2019-02-26T16:05:02.809Z,16.83
2019-02-26T16:07:33.279Z,17.43
2019-02-26T16:10:16.413Z,16.63
2019-02-26T16:15:38.585Z,15.83
2019-02-26T16:18:18.040Z,16.10
2019-02-26T16:20:55.835Z,18.42
2019-02-26T16:23:37.765Z,15.60
2019-02-26T16:26:09.861Z,16.03
2019-02-26T16:28:40.150Z,20.17
2019-02-26T16:31:10.411Z,16.80
2019-02-26T16:33:40.713Z,17.40
2019-02-26T16:36:12.963Z,17.77
2019-02-26T16:38:42.968Z,17.77
2019-02-26T16:41:13.374Z,16.37
2019-02-26T16:43:43.940Z,16.03
2019-02-26T16:46:14.493Z,17.00
2019-02-26T16:48:45.374Z,16.30
2019-02-26T16:51:18.551Z,17.67
2019-02-26T16:53:47.647Z,17.50
2019-02-26T16:56:21.634Z,18.73
2019-02-26T16:58:49.807Z,17.53
2019-02-26T17:01:21.749Z,15.77
2019-02-26T17:03:52.020Z,16.97
2019-02-26T17:06:22.244Z,18.30
2019-02-26T17:08:52.503Z,18.70
2019-02-26T17:11:22.861Z,19.67
2019-02-26T17:13:53.050Z,19.07
2019-02-26T17:16:23.248Z,18.13
2019-02-26T17:18:53.482Z,20.80
2019-02-26T17:21:23.728Z,19.17
2019-02-26T17:23:54.014Z,18.97
2019-02-26T17:26:24.225Z,20.17
2019-02-26T17:28:54.499Z,21.67
2019-02-26T17:31:24.693Z,20.30
2019-02-26T17:33:54.925Z,21.67
2019-02-26T17:36:25.147Z,20.67
2019-02-26T17:38:55.372Z,21.87
2019-02-26T17:41:25.553Z,22.97
2019-02-26T17:43:58.770Z,23.57
2019-02-26T17:46:28.680Z,24.93
2019-02-26T17:49:02.642Z,23.80
2019-02-26T17:51:31.284Z,21.03
2019-02-26T17:54:01.971Z,21.43
2019-02-26T17:56:33.499Z,22.60
2019-02-26T17:59:03.822Z,20.90
2019-02-26T18:01:34.032Z,19.87
2019-02-26T18:04:04.296Z,20.27
2019-02-26T18:06:34.497Z,19.77
2019-02-26T18:09:05.236Z,21.37
2019-02-26T18:11:36.563Z,20.03
2019-02-26T18:14:06.928Z,19.87
2019-02-26T18:16:37.141Z,19.07
2019-02-26T18:19:09.744Z,20.63
2019-02-26T18:21:43.399Z,18.93
2019-02-26T18:24:11.260Z,20.03
2019-02-26T18:26:41.491Z,18.83
2019-02-26T18:29:11.733Z,20.23
2019-02-26T18:31:41.934Z,19.30
2019-02-26T18:34:14.037Z,18.53
2019-02-26T18:36:45.475Z,21.03
2019-02-26T18:39:16.144Z,20.83
2019-02-26T18:41:50.710Z,20.80
2019-02-26T18:44:20.527Z,20.90
2019-02-26T18:46:51.120Z,20.40
2019-02-26T18:49:22.399Z,19.20
2019-02-26T18:51:52.644Z,20.07
2019-02-26T18:54:22.887Z,18.63
2019-02-26T18:56:53.937Z,19.27
2019-02-26T18:59:24.263Z,17.30
2019-02-26T19:01:54.534Z,19.43
2019-02-26T19:04:24.808Z,26.63
2019-02-26T19:06:55.015Z,15.57
2019-02-26T19:09:25.316Z,17.17
2019-02-26T19:11:57.715Z,17.63
2019-02-26T19:14:27.387Z,16.40
2019-02-26T19:16:57.603Z,17.73
2019-02-26T19:19:27.750Z,14.53
2019-02-26T19:21:58.999Z,15.13
2019-02-26T19:24:29.395Z,16.47
2019-02-26T19:26:59.601Z,16.00
2019-02-26T19:29:31.548Z,16.20
2019-02-26T19:32:01.786Z,17.13
2019-02-26T19:34:32.029Z,16.40
2019-02-26T19:37:02.239Z,16.70
2019-02-26T19:39:33.751Z,16.50
2019-02-26T19:42:04.487Z,16.13
2019-02-26T19:44:36.447Z,16.47
2019-02-26T19:47:06.808Z,14.20
2019-02-26T19:49:39.686Z,13.23
2019-02-26T19:52:09.381Z,16.13
2019-02-26T19:54:41.571Z,16.70
2019-02-26T19:57:12.322Z,15.33
2019-02-26T19:59:46.784Z,13.90
2019-02-26T20:02:14.724Z,13.80
2019-02-26T20:04:44.991Z,13.30
2019-02-26T20:07:15.193Z,14.33
2019-02-26T20:09:45.364Z,15.17
2019-02-26T20:12:15.592Z,15.33
2019-02-26T20:14:48.551Z,13.97
2019-02-26T20:17:17.720Z,14.53
2019-02-26T20:19:48.038Z,13.63
2019-02-26T20:22:18.448Z,14.10
2019-02-26T20:24:48.719Z,12.40
2019-02-26T20:27:21.647Z,13.07
2019-02-26T20:29:50.887Z,13.63
2019-02-26T20:32:21.069Z,12.90
2019-02-26T20:34:51.328Z,14.70
2019-02-26T20:37:22.003Z,12.93
2019-02-26T20:39:53.415Z,13.17
2019-02-26T20:42:23.610Z,14.20
2019-02-26T20:44:58.990Z,13.43
2019-02-26T20:47:31.535Z,14.00
2019-02-26T20:50:01.047Z,12.33
2019-02-26T20:52:32.952Z,12.67
2019-02-26T20:55:03.020Z,12.43
2019-02-26T20:57:34.905Z,12.37
2019-02-26T21:00:08.207Z,13.30
2019-02-26T21:02:38.394Z,12.07
2019-02-26T21:05:09.641Z,11.77
2019-02-26T21:07:39.774Z,11.83
2019-02-26T21:10:15.031Z,11.10
2019-02-26T21:12:43.855Z,11.07
2019-02-26T21:15:24.803Z,9.93
2019-02-26T21:17:57.738Z,9.67
2019-02-26T21:20:26.632Z,10.90
2019-02-26T21:22:56.810Z,10.90
2019-02-26T21:25:26.985Z,10.47
2019-02-26T21:28:00.785Z,9.47
2019-02-26T21:30:28.975Z,10.53
2019-02-26T21:32:59.183Z,11.27
2019-02-26T21:35:29.439Z,10.47
2019-02-26T21:37:59.636Z,9.73
2019-02-26T21:40:29.767Z,9.00
2019-02-26T21:43:02.407Z,9.67
2019-02-26T21:45:32.566Z,9.00
2019-02-26T21:48:03.316Z,10.40
2019-02-26T21:50:33.779Z,10.00
2019-02-26T21:53:03.963Z,8.77
2019-02-26T21:55:43.978Z,8.67
2019-02-26T21:58:05.894Z,9.00
2019-02-26T22:00:36.745Z,8.97
2019-02-26T22:03:07.832Z,9.20
2019-02-26T22:05:38.435Z,8.30
2019-02-26T22:08:08.563Z,8.30
2019-02-26T22:10:40.224Z,8.80
2019-02-26T22:13:10.540Z,8.80
2019-02-26T22:15:42.040Z,8.73
2019-02-26T22:18:12.470Z,8.33
2019-02-26T22:20:42.632Z,8.23
2019-02-26T22:23:14.833Z,8.60
2019-02-26T22:25:44.557Z,7.80
2019-02-26T22:28:14.658Z,8.30
2019-02-26T22:30:44.822Z,7.67
2019-02-26T22:33:14.933Z,8.30
2019-02-26T22:35:45.080Z,7.97
2019-02-26T22:38:16.006Z,7.83
2019-02-26T22:40:46.199Z,8.67
2019-02-26T22:43:16.290Z,9.03
2019-02-26T22:45:47.511Z,8.53
2019-02-26T22:48:17.805Z,7.30
2019-02-26T22:50:48.247Z,8.37
2019-02-26T22:53:18.533Z,8.40
2019-02-26T22:55:49.815Z,7.70
2019-02-26T22:58:20.652Z,7.77
2019-02-26T23:00:58.439Z,8.90
2019-02-26T23:03:29.467Z,9.70
2019-02-26T23:05:59.818Z,11.60
2019-02-26T23:08:30.212Z,13.13
2019-02-26T23:11:00.680Z,11.60
2019-02-26T23:13:31.890Z,9.70
2019-02-26T23:16:03.047Z,9.83
2019-02-26T23:18:33.335Z,8.70
2019-02-26T23:21:03.701Z,9.00
2019-02-26T23:23:34.243Z,7.90
2019-02-26T23:26:08.630Z,8.53
2019-02-26T23:28:37.078Z,8.37
2019-02-26T23:31:07.925Z,7.40
2019-02-26T23:33:40.780Z,7.20
2019-02-26T23:36:10.870Z,7.33
2019-02-26T23:38:43.813Z,6.73
2019-02-26T23:41:13.212Z,7.40
2019-02-26T23:43:45.390Z,6.23
2019-02-26T23:46:21.401Z,7.37
2019-02-26T23:48:51.689Z,6.67
2019-02-26T23:51:22.134Z,6.50
2019-02-26T23:53:52.445Z,6.27
2019-02-26T23:56:22.802Z,6.60
2019-02-26T23:58:53.098Z,5.77
